Time;durP1;ratioP1;P1;durP2;ratioP2;P2;SDS_P1;SDS_P2;PMS_P1;PMS_P2;Temp;Humidity;BMP_temperature;BMP_pressure;BME280_temperature;BME280_humidity;BME280_pressure;Samples;Min_cycle;Max_cycle;Signal;HPM_P1;HPM_P2
2021/03/21 00:01:35;;;;;;;16.38;6.20;;;;;;;8.10;72.56;101709.50;6303221;22;20406;-75
2021/03/21 00:04:01;;;;;;;5.10;4.65;;;;;;;8.23;72.16;101703.13;6300074;22;20433;-76
2021/03/21 00:06:26;;;;;;;5.22;4.85;;;;;;;8.33;72.50;101702.66;6296332;22;20003;-75
2021/03/21 00:08:52;;;;;;;4.72;4.53;;;;;;;8.42;71.63;101705.97;6278372;22;20386;-75
2021/03/21 00:11:18;;;;;;;5.47;5.07;;;;;;;8.49;71.16;101702.16;6275082;22;20388;-74
2021/03/21 00:13:43;;;;;;;4.35;4.05;;;;;;;8.55;71.86;101700.44;6304816;22;19999;-75
2021/03/21 00:16:09;;;;;;;4.47;4.15;;;;;;;8.63;72.10;101702.06;6275989;22;20068;-76
2021/03/21 00:18:37;;;;;;;3.90;3.70;;;;;;;8.66;71.25;101698.88;6305335;22;20019;-76
2021/03/21 00:21:05;;;;;;;4.20;3.90;;;;;;;8.71;70.56;101713.53;6275293;22;20687;-77
2021/03/21 00:23:31;;;;;;;3.70;3.45;;;;;;;8.77;70.53;101713.69;6277599;22;20003;-76
2021/03/21 00:25:57;;;;;;;3.85;3.58;;;;;;;8.82;70.96;101722.03;6305370;22;20003;-76
2021/03/21 00:28:27;;;;;;;3.75;3.55;;;;;;;8.85;70.67;101714.25;6301600;22;20329;-75
2021/03/21 00:30:53;;;;;;;3.83;3.30;;;;;;;8.94;70.73;101724.91;6298209;22;20002;-73
2021/03/21 00:33:21;;;;;;;4.10;3.80;;;;;;;8.94;70.53;101711.25;6296396;22;20302;-73
2021/03/21 00:35:47;;;;;;;3.88;3.58;;;;;;;9.00;69.96;101704.91;6303954;22;20010;-73
2021/03/21 00:38:22;;;;;;;5.35;3.45;;;;;;;9.00;70.39;101697.53;6304483;22;20003;-75
2021/03/21 00:40:48;;;;;;;2.88;2.72;;;;;;;9.02;70.01;101694.59;6302846;22;20004;-73
2021/03/21 00:43:14;;;;;;;2.83;2.72;;;;;;;9.07;69.98;101692.03;6249983;22;20328;-75
2021/03/21 00:45:39;;;;;;;3.03;2.92;;;;;;;9.12;69.67;101699.53;6297621;22;20668;-74
2021/03/21 00:48:11;;;;;;;3.03;2.90;;;;;;;9.18;68.88;101701.34;6303588;22;20057;-74
2021/03/21 00:50:36;;;;;;;2.15;2.05;;;;;;;9.18;69.48;101696.72;6293739;22;20003;-73
2021/03/21 00:53:01;;;;;;;2.40;2.30;;;;;;;9.21;69.04;101681.81;6303811;22;20080;-73
2021/03/21 00:55:27;;;;;;;2.22;2.13;;;;;;;9.25;68.45;101693.94;6271701;22;20014;-75
2021/03/21 00:57:53;;;;;;;2.15;2.05;;;;;;;9.26;68.30;101685.53;6302719;22;20062;-75
2021/03/21 01:00:32;;;;;;;1.67;1.58;;;;;;;9.29;68.66;101686.13;6274860;22;20019;-74
2021/03/21 01:03:00;;;;;;;1.48;1.45;;;;;;;9.28;67.92;101692.66;6276180;22;20050;-74
2021/03/21 01:05:51;;;;;;;2.13;2.03;;;;;;;9.34;67.88;101689.84;6279815;22;20503;-75
2021/03/21 01:08:36;;;;;;;1.80;1.70;;;;;;;9.33;68.63;101692.81;6306944;22;20006;-74
2021/03/21 01:11:14;;;;;;;2.20;2.10;;;;;;;9.36;67.53;101695.06;6304054;22;20027;-75
2021/03/21 01:13:41;;;;;;;1.75;1.65;;;;;;;9.34;66.90;101689.03;6278985;22;20010;-72
2021/03/21 01:16:10;;;;;;;1.75;1.65;;;;;;;9.35;67.57;101693.44;6301116;22;20105;-74
2021/03/21 01:18:36;;;;;;;1.33;1.23;;;;;;;9.36;67.63;101689.63;6296650;22;20132;-74
2021/03/21 01:21:03;;;;;;;1.20;1.17;;;;;;;9.39;66.98;101689.19;6309311;22;20007;-73
2021/03/21 01:23:29;;;;;;;3.58;1.13;;;;;;;9.44;66.54;101678.41;6278045;22;20011;-74
2021/03/21 01:25:54;;;;;;;1.45;1.35;;;;;;;9.46;67.62;101679.00;6332950;22;20007;-74
2021/03/21 01:28:26;;;;;;;0.93;0.93;;;;;;;9.44;67.18;101673.75;6311752;22;20003;-73
2021/03/21 01:30:54;;;;;;;1.10;1.10;;;;;;;9.47;67.04;101674.38;6308752;22;20007;-74
2021/03/21 01:33:20;;;;;;;2.00;1.90;;;;;;;9.44;66.76;101665.56;6278186;22;20061;-74
2021/03/21 01:35:50;;;;;;;1.60;1.50;;;;;;;9.44;65.86;101670.22;6307597;22;20007;-74
2021/03/21 01:38:16;;;;;;;1.35;1.35;;;;;;;9.41;65.98;101670.66;6272846;22;20046;-72
2021/03/21 01:40:42;;;;;;;0.73;0.73;;;;;;;9.40;66.85;101660.81;6278710;22;20006;-72
2021/03/21 01:43:12;;;;;;;1.65;1.55;;;;;;;9.41;66.70;101654.28;6277399;22;20007;-72
2021/03/21 01:45:44;;;;;;;1.20;1.20;;;;;;;9.36;66.31;101657.72;6294892;22;20444;-72
2021/03/21 01:48:16;;;;;;;1.00;0.90;;;;;;;9.31;66.48;101654.81;6306530;22;20295;-74
2021/03/21 01:50:50;;;;;;;1.60;1.50;;;;;;;9.24;66.01;101660.38;6279560;22;20008;-74
2021/03/21 01:53:20;;;;;;;1.08;1.00;;;;;;;9.20;66.54;101659.13;6306073;22;20003;-74
2021/03/21 01:55:46;;;;;;;1.98;1.70;;;;;;;9.10;66.63;101653.38;6278585;22;20027;-75
2021/03/21 01:58:12;;;;;;;1.95;1.85;;;;;;;9.04;66.70;101659.75;6280575;22;20306;-75
2021/03/21 02:00:39;;;;;;;1.40;1.30;;;;;;;8.94;66.42;101649.34;6279745;22;20003;-73
2021/03/21 02:03:05;;;;;;;1.33;1.25;;;;;;;8.94;66.75;101664.88;6305046;22;20023;-74
2021/03/21 02:05:31;;;;;;;1.35;1.25;;;;;;;8.88;67.08;101652.97;6305773;22;20102;-74
2021/03/21 02:08:26;;;;;;;1.05;1.05;;;;;;;8.91;66.29;101661.53;6280524;22;20007;-73
2021/03/21 02:11:04;;;;;;;1.45;1.35;;;;;;;8.88;67.02;101659.25;6304339;22;20029;-74
2021/03/21 02:13:44;;;;;;;1.60;1.50;;;;;;;8.89;66.85;101671.84;6277955;22;20014;-73
2021/03/21 02:16:17;;;;;;;1.15;1.15;;;;;;;8.88;67.32;101670.16;6306179;22;20026;-72
2021/03/21 02:19:20;;;;;;;1.65;1.55;;;;;;;8.94;66.19;101660.25;6305443;22;20035;-75
2021/03/21 02:21:56;;;;;;;2.42;2.25;;;;;;;8.97;65.78;101653.53;6324730;22;20317;-75
2021/03/21 02:24:48;;;;;;;0.85;0.85;;;;;;;8.99;65.87;101660.38;6306452;22;20011;-74
2021/03/21 02:27:51;;;;;;;0.85;0.85;;;;;;;8.98;65.68;101652.44;6307380;22;20306;-76
2021/03/21 02:30:30;;;;;;;1.13;1.13;;;;;;;8.99;65.37;101640.47;6298276;22;20041;-75
2021/03/21 02:33:06;;;;;;;1.52;1.42;;;;;;;8.96;65.47;101651.84;6303986;22;20053;-74
2021/03/21 02:36:04;;;;;;;1.85;1.75;;;;;;;8.93;65.21;101657.75;6278336;22;20003;-74
2021/03/21 02:38:42;;;;;;;1.27;1.27;;;;;;;8.88;65.11;101656.53;6301672;22;20003;-73
2021/03/21 02:41:14;;;;;;;1.00;1.00;;;;;;;8.82;66.07;101646.50;6308203;22;20062;-75
2021/03/21 02:43:45;;;;;;;1.25;1.25;;;;;;;8.83;65.07;101650.06;6301830;22;20049;-74
2021/03/21 02:46:16;;;;;;;2.95;1.30;;;;;;;8.84;65.84;101651.75;6304595;22;19999;-77
2021/03/21 02:48:49;;;;;;;1.27;1.27;;;;;;;8.84;65.73;101643.56;6305664;22;20011;-75
2021/03/21 02:51:22;;;;;;;1.15;1.05;;;;;;;8.87;65.75;101632.19;6305316;22;20004;-75
2021/03/21 02:53:59;;;;;;;0.73;0.73;;;;;;;8.90;65.60;101624.38;6276063;22;19999;-75
2021/03/21 02:56:27;;;;;;;0.95;0.95;;;;;;;8.93;64.48;101625.00;6303322;22;20619;-74
2021/03/21 02:59:00;;;;;;;0.73;0.70;;;;;;;8.93;65.05;101625.00;6297951;22;20003;-75
2021/03/21 03:01:29;;;;;;;1.17;1.17;;;;;;;8.89;64.72;101611.81;6304369;22;19995;-75
2021/03/21 03:04:00;;;;;;;1.20;1.10;;;;;;;8.91;64.36;101617.88;6305400;22;20015;-75
2021/03/21 03:06:32;;;;;;;1.20;1.10;;;;;;;8.90;65.00;101616.19;6306960;22;20065;-74
2021/03/21 03:09:06;;;;;;;1.02;1.02;;;;;;;8.91;65.30;101627.97;6303319;22;20406;-73
2021/03/21 03:11:53;;;;;;;1.52;1.42;;;;;;;8.93;64.98;101625.00;6306098;22;19999;-74
2021/03/21 03:14:36;;;;;;;1.23;1.20;;;;;;;8.89;64.65;101625.47;6295089;22;20007;-74
2021/03/21 03:17:05;;;;;;;1.50;1.40;;;;;;;8.88;65.61;101623.78;6295753;22;20713;-72
2021/03/21 03:19:53;;;;;;;1.63;1.38;;;;;;;8.89;64.96;101621.88;6304455;22;20003;-73
2021/03/21 03:22:30;;;;;;;0.93;0.93;;;;;;;8.82;65.04;101624.69;6284398;22;20029;-75
2021/03/21 03:25:23;;;;;;;0.70;0.70;;;;;;;8.82;65.59;101618.38;6301969;22;20003;-74
2021/03/21 03:27:55;;;;;;;1.00;1.00;;;;;;;8.77;64.59;101621.78;6299339;22;20429;-74
2021/03/21 03:30:26;;;;;;;1.65;1.10;;;;;;;8.75;65.40;101623.91;6278695;22;20003;-73
2021/03/21 03:32:53;;;;;;;1.38;1.38;;;;;;;8.70;65.19;101610.09;6301450;22;20985;-75
2021/03/21 03:35:20;;;;;;;1.48;1.38;;;;;;;8.71;65.36;101611.78;6301002;22;20022;-73
2021/03/21 03:37:45;;;;;;;3.45;1.42;;;;;;;8.76;64.64;101614.69;6305356;22;20014;-74
2021/03/21 03:40:12;;;;;;;1.25;1.15;;;;;;;8.71;64.92;101612.63;6274215;22;20042;-74
2021/03/21 03:43:13;;;;;;;1.42;1.33;;;;;;;8.68;64.69;101617.69;6305231;22;20490;-75
2021/03/21 03:45:44;;;;;;;4.50;2.13;;;;;;;8.66;64.70;101614.34;6276609;22;20007;-74
2021/03/21 03:48:31;;;;;;;1.48;1.38;;;;;;;8.66;65.19;101619.78;6279423;22;20007;-74
2021/03/21 03:51:10;;;;;;;1.83;1.73;;;;;;;8.55;64.81;101603.09;6300806;22;20011;-73
2021/03/21 03:53:41;;;;;;;1.58;1.48;;;;;;;8.64;65.21;101616.47;6274926;22;20081;-73
2021/03/21 03:56:24;;;;;;;1.25;1.00;;;;;;;8.59;65.14;101613.59;6300555;22;20079;-74
2021/03/21 03:58:59;;;;;;;1.52;1.42;;;;;;;8.56;65.38;101604.78;6305921;22;20382;-72
2021/03/21 04:01:50;;;;;;;1.95;1.85;;;;;;;8.61;65.19;101597.84;6304698;22;20406;-73
2021/03/21 04:04:19;;;;;;;1.55;1.45;;;;;;;8.58;65.60;101601.84;6291472;22;20555;-74
2021/03/21 04:06:59;;;;;;;3.22;1.63;;;;;;;8.54;64.97;101601.47;6300660;22;20007;-74
2021/03/21 04:09:30;;;;;;;1.45;1.35;;;;;;;8.51;66.03;101607.38;6277065;22;20006;-73
2021/03/21 04:12:05;;;;;;;1.92;1.52;;;;;;;8.47;65.84;101600.69;6300609;22;20035;-73
2021/03/21 04:14:33;;;;;;;1.52;1.45;;;;;;;8.47;65.83;101600.69;6305896;22;20475;-74
2021/03/21 04:17:10;;;;;;;1.50;1.40;;;;;;;8.48;66.22;101602.34;6303491;22;20578;-73
2021/03/21 04:19:39;;;;;;;1.42;1.33;;;;;;;8.45;65.83;101594.59;6303490;22;20010;-72
2021/03/21 04:22:19;;;;;;;1.88;1.77;;;;;;;8.40;66.17;101594.44;6301198;22;19995;-74
2021/03/21 04:24:51;;;;;;;1.73;1.20;;;;;;;8.45;66.01;101607.41;6275690;22;19995;-73
2021/03/21 04:27:19;;;;;;;1.25;1.15;;;;;;;8.41;65.94;101612.47;6302272;22;20326;-73
2021/03/21 04:29:56;;;;;;;0.80;0.80;;;;;;;8.47;65.41;101614.31;6302119;22;20011;-74
2021/03/21 04:32:34;;;;;;;1.27;1.10;;;;;;;8.47;66.30;101608.88;6304824;22;20426;-73
2021/03/21 04:35:05;;;;;;;0.77;0.77;;;;;;;8.49;65.75;101623.09;6296899;22;20003;-72
2021/03/21 04:37:31;;;;;;;1.50;1.40;;;;;;;8.49;65.25;101620.38;6304372;22;19999;-73
2021/03/21 04:39:59;;;;;;;1.70;1.60;;;;;;;8.46;65.33;101615.38;6281825;22;20760;-74
2021/03/21 04:42:35;;;;;;;1.30;1.20;;;;;;;8.46;66.07;101614.53;6305797;22;20004;-73
2021/03/21 04:45:15;;;;;;;1.30;1.25;;;;;;;8.47;65.24;101611.59;6296629;22;20059;-72
2021/03/21 04:47:49;;;;;;;1.48;1.38;;;;;;;8.46;65.44;101620.81;6306947;22;20390;-73
2021/03/21 04:50:17;;;;;;;1.38;1.27;;;;;;;8.42;65.84;101614.09;6305995;22;20045;-71
2021/03/21 04:53:14;;;;;;;1.90;1.80;;;;;;;8.39;66.67;101609.09;6304777;22;20038;-73
2021/03/21 04:55:43;;;;;;;1.90;1.80;;;;;;;8.44;66.00;101622.94;6309286;22;19999;-74
2021/03/21 04:58:17;;;;;;;1.60;1.50;;;;;;;8.44;65.48;101628.41;6278793;22;20007;-74
2021/03/21 05:00:47;;;;;;;1.17;1.17;;;;;;;8.41;66.26;101623.38;6282556;22;20029;-75
2021/03/21 05:03:23;;;;;;;0.68;0.68;;;;;;;8.43;66.14;101625.88;6306058;22;20039;-73
2021/03/21 05:05:59;;;;;;;0.93;0.85;;;;;;;8.39;66.11;101620.81;6308322;22;20006;-74
2021/03/21 05:08:28;;;;;;;;;;;;;;;8.46;65.25;101633.63;6307311;22;20338;-73
2021/03/21 05:11:02;;;;;;;0.90;0.82;;;;;;;8.35;65.23;101619.63;6281870;22;19990;-73
2021/03/21 05:13:42;;;;;;;1.02;1.02;;;;;;;8.33;65.92;101607.28;6310632;22;20287;-76
2021/03/21 05:16:32;;;;;;;0.77;0.73;;;;;;;8.36;66.32;101625.91;6312991;22;20030;-75
2021/03/21 05:19:23;;;;;;;0.73;0.73;;;;;;;8.32;65.84;101621.94;6309931;22;20015;-76
2021/03/21 05:21:55;;;;;;;0.90;0.90;;;;;;;8.29;66.15;101630.56;6283747;22;19995;-74
2021/03/21 05:24:32;;;;;;;0.80;0.80;;;;;;;8.28;66.50;101637.06;6282620;22;20000;-75
2021/03/21 05:27:07;;;;;;;0.45;0.45;;;;;;;8.29;66.88;101630.56;6307885;22;19995;-75
2021/03/21 05:29:42;;;;;;;0.60;0.60;;;;;;;8.33;65.89;101629.06;6304120;22;20009;-74
2021/03/21 05:32:10;;;;;;;0.80;0.80;;;;;;;8.34;66.27;101638.94;6277725;22;20014;-74
2021/03/21 05:34:36;;;;;;;0.82;0.82;;;;;;;8.30;66.59;101622.16;6306652;22;20030;-73
2021/03/21 05:37:29;;;;;;;1.25;0.80;;;;;;;8.46;65.83;101637.19;6305713;22;20303;-73
2021/03/21 05:39:58;;;;;;;1.42;1.33;;;;;;;8.43;66.15;101640.31;6308838;22;20007;-73
2021/03/21 05:42:41;;;;;;;1.33;1.23;;;;;;;8.44;66.87;101642.03;6279405;22;20010;-73
2021/03/21 05:45:13;;;;;;;1.00;0.93;;;;;;;8.42;66.11;101635.91;6305156;22;19999;-73
2021/03/21 05:48:05;;;;;;;1.02;1.02;;;;;;;8.43;66.06;101634.88;6280572;22;20013;-74
2021/03/21 05:50:48;;;;;;;1.10;1.10;;;;;;;8.41;65.98;101639.72;6304906;22;19996;-74
2021/03/21 05:53:22;;;;;;;1.10;0.82;;;;;;;8.42;66.04;101644.09;6306087;22;20075;-73
2021/03/21 05:56:14;;;;;;;0.80;0.80;;;;;;;8.44;67.04;101639.31;6276958;22;20086;-73
2021/03/21 05:59:15;;;;;;;1.10;1.10;;;;;;;8.51;66.67;101650.13;6303379;22;20007;-73
2021/03/21 06:01:55;;;;;;;3.50;0.90;;;;;;;8.55;66.18;101646.72;6305460;22;20003;-73
2021/03/21 06:05:18;;;;;;;0.90;0.88;;;;;;;8.56;66.65;101653.88;6292642;22;20026;-72
2021/03/21 06:08:22;;;;;;;1.40;1.30;;;;;;;8.55;65.97;101654.91;6277767;22;20023;-72
2021/03/21 06:11:05;;;;;;;1.50;1.40;;;;;;;8.50;66.98;101660.22;6292784;22;20102;-72
2021/03/21 06:13:53;;;;;;;1.27;1.17;;;;;;;8.51;66.49;101670.06;6273458;22;20144;-72
2021/03/21 06:16:45;;;;;;;0.80;0.80;;;;;;;8.49;67.03;101663.16;6276934;22;20010;-72
2021/03/21 06:19:28;;;;;;;1.40;1.20;;;;;;;8.44;66.86;101666.56;6275508;22;20014;-73
2021/03/21 06:22:22;;;;;;;1.00;1.00;;;;;;;8.37;66.47;101671.19;6304851;22;20002;-72
2021/03/21 06:24:55;;;;;;;1.52;1.00;;;;;;;8.26;66.21;101680.06;6298081;22;20422;-72
2021/03/21 06:27:23;;;;;;;0.88;0.88;;;;;;;8.14;66.81;101672.59;6305668;22;20014;-72
2021/03/21 06:30:19;;;;;;;1.88;1.23;;;;;;;8.06;67.43;101672.88;6302580;22;20025;-74
2021/03/21 06:32:56;;;;;;;1.17;0.82;;;;;;;8.01;66.73;101676.22;6296762;22;20010;-73
2021/03/21 06:36:03;;;;;;;1.05;1.05;;;;;;;8.02;67.75;101675.19;6307324;22;20026;-73
2021/03/21 06:38:46;;;;;;;1.27;1.20;;;;;;;8.02;67.59;101677.91;6248301;22;19999;-72
2021/03/21 06:41:26;;;;;;;1.30;1.17;;;;;;;8.08;67.91;101678.91;6302437;22;20140;-73
2021/03/21 06:44:04;;;;;;;1.42;1.33;;;;;;;8.16;67.19;101680.53;6280675;22;20427;-73
2021/03/21 06:47:02;;;;;;;1.98;1.48;;;;;;;8.24;67.68;101676.75;6306485;22;19999;-74
2021/03/21 06:50:01;;;;;;;1.65;1.05;;;;;;;8.36;67.99;101688.59;6303773;22;20052;-73
2021/03/21 06:53:02;;;;;;;1.45;1.45;;;;;;;8.41;67.00;101694.22;6273902;22;20007;-72
2021/03/21 06:55:44;;;;;;;1.50;1.40;;;;;;;8.43;67.86;101689.38;6244116;22;20034;-72
2021/03/21 06:58:44;;;;;;;2.95;1.63;;;;;;;8.52;67.92;101685.34;6296942;22;20007;-73
2021/03/21 07:01:39;;;;;;;1.85;1.40;;;;;;;8.58;67.02;101694.53;6302850;22;20074;-73
2021/03/21 07:04:05;;;;;;;2.33;1.13;;;;;;;8.67;66.86;101693.22;6300899;22;20061;-73
2021/03/21 07:06:39;;;;;;;1.85;1.75;;;;;;;8.77;66.90;101697.34;6279744;22;20007;-74
2021/03/21 07:09:19;;;;;;;1.52;1.42;;;;;;;8.81;67.05;101704.84;6275010;22;20011;-74
2021/03/21 07:12:14;;;;;;;1.13;1.10;;;;;;;8.87;66.49;101695.75;6301674;22;20386;-73
2021/03/21 07:15:21;;;;;;;1.00;0.90;;;;;;;8.95;67.42;101689.22;6272289;22;20414;-74
2021/03/21 07:18:14;;;;;;;1.40;1.30;;;;;;;9.01;66.39;101699.22;6275725;22;20003;-72
2021/03/21 07:21:01;;;;;;;1.38;0.90;;;;;;;9.05;66.53;101694.13;6276273;22;20006;-72
2021/03/21 07:24:24;;;;;;;0.85;0.85;;;;;;;9.15;66.61;101694.44;6302112;22;20024;-73
2021/03/21 07:27:04;;;;;;;0.90;0.90;;;;;;;9.23;66.72;101685.97;6147414;23;20088;-72
2021/03/21 07:29:35;;;;;;;0.77;0.77;;;;;;;9.29;67.27;101689.69;6141419;23;20005;-74
2021/03/21 07:32:31;;;;;;;0.77;0.55;;;;;;;9.43;67.04;101695.84;6236094;22;20014;-73
2021/03/21 07:34:57;;;;;;;0.90;0.90;;;;;;;9.50;66.85;101707.53;6302066;22;20299;-74
2021/03/21 07:37:51;;;;;;;0.68;0.68;;;;;;;9.65;66.86;101714.50;6304076;22;20007;-72
2021/03/21 07:40:49;;;;;;;0.93;0.93;;;;;;;9.73;66.27;101708.75;6237198;22;20010;-76
2021/03/21 07:43:51;;;;;;;1.35;0.95;;;;;;;9.85;66.03;101709.63;6304487;22;20456;-73
2021/03/21 07:46:25;;;;;;;2.00;1.02;;;;;;;9.93;65.09;101716.69;6305028;22;20002;-74
2021/03/21 07:49:18;;;;;;;1.02;1.02;;;;;;;10.02;65.83;101709.00;6308211;22;19999;-78
2021/03/21 07:51:49;;;;;;;1.08;1.00;;;;;;;10.09;65.68;101717.94;6275120;22;20082;-76
2021/03/21 07:54:35;;;;;;;0.95;0.90;;;;;;;10.18;65.13;101712.97;6305171;22;20379;-78
2021/03/21 07:57:16;;;;;;;0.95;0.95;;;;;;;10.20;65.32;101722.63;6270665;22;20011;-75
2021/03/21 07:59:45;;;;;;;0.95;0.95;;;;;;;10.16;65.41;101718.66;6276775;22;20303;-76
2021/03/21 08:02:13;;;;;;;0.60;0.60;;;;;;;10.23;65.14;101733.06;6301726;22;20057;-75
2021/03/21 08:04:47;;;;;;;1.20;1.20;;;;;;;10.27;64.04;101723.34;6305808;22;20019;-76
2021/03/21 08:07:16;;;;;;;1.83;1.73;;;;;;;10.27;64.71;101723.34;6300225;22;20375;-75
2021/03/21 08:09:43;;;;;;;1.05;1.05;;;;;;;10.28;64.76;101716.00;6277895;22;20007;-77
2021/03/21 08:12:17;;;;;;;1.80;1.70;;;;;;;10.30;64.66;101711.94;6300843;22;20014;-76
2021/03/21 08:15:05;;;;;;;2.28;1.13;;;;;;;10.41;64.22;101723.19;6303195;22;20006;-76
2021/03/21 08:17:35;;;;;;;1.40;1.30;;;;;;;10.45;64.44;101718.94;6271678;22;20010;-77
2021/03/21 08:20:22;;;;;;;1.33;1.30;;;;;;;10.52;64.45;101719.66;6306855;22;20063;-76
2021/03/21 08:22:51;;;;;;;1.50;1.40;;;;;;;10.62;64.13;101730.03;6278357;22;20003;-77
2021/03/21 08:25:22;;;;;;;0.95;0.95;;;;;;;10.65;63.65;101735.88;6278953;22;20007;-77
2021/03/21 08:27:52;;;;;;;1.50;1.40;;;;;;;10.69;64.00;101729.91;6304252;22;20060;-76
2021/03/21 08:30:19;;;;;;;1.65;1.55;;;;;;;10.76;63.92;101734.22;6279760;22;20429;-76
2021/03/21 08:33:04;;;;;;;1.73;1.63;;;;;;;10.87;63.43;101721.63;6302869;22;20091;-78
2021/03/21 08:35:37;;;;;;;1.70;1.60;;;;;;;10.97;63.68;101716.41;6273191;22;19999;-77
2021/03/21 08:38:18;;;;;;;1.95;1.55;;;;;;;11.14;63.40;101722.00;6302786;22;20426;-77
2021/03/21 08:40:46;;;;;;;5.22;1.67;;;;;;;11.21;62.58;101721.88;6306074;22;20063;-76
2021/03/21 08:43:17;;;;;;;1.70;1.48;;;;;;;11.44;62.86;101725.69;6275103;22;20011;-76
2021/03/21 08:46:05;;;;;;;1.02;1.00;;;;;;;11.74;62.65;101730.13;6279929;22;20091;-77
2021/03/21 08:48:34;;;;;;;3.05;1.27;;;;;;;11.87;62.30;101727.13;6303627;22;20082;-76
2021/03/21 08:51:19;;;;;;;1.88;1.60;;;;;;;11.93;61.55;101726.19;6306453;22;19999;-77
2021/03/21 08:54:17;;;;;;;1.73;1.63;;;;;;;12.13;60.99;101735.91;6277444;22;20014;-77
2021/03/21 08:57:06;;;;;;;2.05;1.95;;;;;;;12.12;60.81;101717.78;6304253;22;20107;-78
2021/03/21 08:59:40;;;;;;;1.88;1.77;;;;;;;12.23;60.57;101738.84;6279728;22;20021;-79
2021/03/21 09:02:38;;;;;;;1.50;1.40;;;;;;;12.47;60.64;101733.22;6304793;22;20356;-76
2021/03/21 09:05:12;;;;;;;1.75;1.65;;;;;;;12.47;59.53;101722.25;6277932;22;20054;-76
2021/03/21 09:07:43;;;;;;;1.70;1.60;;;;;;;12.54;59.21;101736.66;6279189;22;20023;-75
2021/03/21 09:10:11;;;;;;;1.40;1.30;;;;;;;12.64;59.51;101739.56;6279063;22;20059;-76
2021/03/21 09:12:45;;;;;;;1.30;1.30;;;;;;;12.63;58.79;101735.19;6271091;22;20003;-76
2021/03/21 09:15:16;;;;;;;1.80;1.70;;;;;;;12.72;58.28;101738.34;6279037;22;20007;-75
2021/03/21 09:17:50;;;;;;;2.20;2.08;;;;;;;12.68;58.69;101734.44;6299422;22;20384;-79
2021/03/21 09:20:20;;;;;;;1.67;1.40;;;;;;;12.89;58.75;101744.69;6277461;22;20011;-78
2021/03/21 09:23:25;;;;;;;2.25;1.25;;;;;;;13.21;58.10;101732.25;6280235;22;20042;-78
2021/03/21 09:25:54;;;;;;;5.65;1.85;;;;;;;13.36;56.77;101735.28;6280496;22;20061;-76
2021/03/21 09:28:26;;;;;;;0.80;0.80;;;;;;;13.68;57.41;101736.50;6253315;22;20495;-75
2021/03/21 09:30:54;;;;;;;1.15;1.05;;;;;;;13.94;57.41;101726.66;6308804;22;20499;-75
2021/03/21 09:33:30;;;;;;;0.70;0.70;;;;;;;14.39;57.43;101735.69;6308702;22;20003;-75
2021/03/21 09:36:28;;;;;;;0.68;0.68;;;;;;;15.06;57.13;101748.13;6305393;22;20333;-77
2021/03/21 09:39:10;;;;;;;1.48;1.02;;;;;;;15.45;54.93;101742.34;6292976;22;20014;-72
2021/03/21 09:41:37;;;;;;;1.20;0.80;;;;;;;15.79;53.97;101747.50;6285476;22;20042;-76
2021/03/21 09:44:05;;;;;;;0.77;0.77;;;;;;;16.10;52.96;101742.09;6295682;22;20015;-77
2021/03/21 09:47:00;;;;;;;2.95;1.17;;;;;;;16.51;52.07;101747.69;6324576;22;20003;-77
2021/03/21 09:49:56;;;;;;;0.38;0.38;;;;;;;16.78;51.44;101734.72;6325406;22;20003;-76
2021/03/21 09:52:35;;;;;;;0.70;0.70;;;;;;;16.98;50.14;101742.22;6326360;22;20019;-76
2021/03/21 09:55:33;;;;;;;1.38;0.98;;;;;;;17.18;49.70;101747.72;6289598;22;20007;-76
2021/03/21 09:58:15;;;;;;;1.27;0.65;;;;;;;17.43;49.55;101746.88;6306286;22;20060;-77
2021/03/21 10:01:11;;;;;;;1.45;1.00;;;;;;;17.70;47.66;101755.94;6279832;22;20436;-76
2021/03/21 10:03:38;;;;;;;2.60;1.25;;;;;;;17.62;47.12;101743.47;6307336;22;20046;-77
2021/03/21 10:06:16;;;;;;;0.60;0.60;;;;;;;17.66;46.93;101750.13;6276440;22;20003;-78
2021/03/21 10:09:04;;;;;;;1.38;0.75;;;;;;;17.88;47.25;101755.28;6306139;22;20007;-76
2021/03/21 10:11:51;;;;;;;0.70;0.70;;;;;;;17.88;47.17;101752.50;6306136;22;19999;-80
2021/03/21 10:14:22;;;;;;;3.45;0.75;;;;;;;17.93;46.54;101766.38;6278117;22;20334;-77
2021/03/21 10:16:55;;;;;;;0.70;0.68;;;;;;;17.82;45.82;101767.50;6277824;22;20018;-76
2021/03/21 10:19:41;;;;;;;2.53;1.05;;;;;;;17.71;45.14;101763.09;6299742;22;20042;-76
2021/03/21 10:22:18;;;;;;;0.50;0.50;;;;;;;17.62;45.79;101769.22;6306236;22;20388;-76
2021/03/21 10:24:49;;;;;;;2.03;1.02;;;;;;;17.56;46.27;101766.75;6277507;22;20373;-78
2021/03/21 10:27:15;;;;;;;1.95;0.70;;;;;;;17.75;46.12;101775.25;6300166;22;19999;-77
2021/03/21 10:30:00;;;;;;;0.50;0.50;;;;;;;17.88;46.40;101773.84;6301840;22;19999;-76
2021/03/21 10:32:32;;;;;;;0.55;0.55;;;;;;;18.06;45.98;101776.00;6273437;22;20007;-78
2021/03/21 10:35:14;;;;;;;1.92;0.95;;;;;;;18.03;45.73;101756.38;6301325;22;20009;-77
2021/03/21 10:37:43;;;;;;;0.88;0.80;;;;;;;18.23;45.03;101775.63;6273393;22;20013;-78
2021/03/21 10:40:11;;;;;;;1.40;0.47;;;;;;;18.07;43.59;101761.03;6303083;22;20445;-80
2021/03/21 10:43:02;;;;;;;0.40;0.30;;;;;;;18.01;44.78;101761.38;6306786;22;20003;-79
2021/03/21 10:45:37;;;;;;;0.95;0.63;;;;;;;18.18;43.57;101774.81;6282966;22;20006;-78
2021/03/21 10:48:14;;;;;;;1.45;0.50;;;;;;;18.16;43.48;101783.41;6282461;22;20410;-79
2021/03/21 10:50:54;;;;;;;1.50;0.90;;;;;;;18.07;43.00;101782.38;6281943;22;20089;-77
2021/03/21 10:53:24;;;;;;;1.13;0.88;;;;;;;17.96;42.46;101773.28;6305109;22;20326;-81
2021/03/21 10:56:17;;;;;;;2.20;1.33;;;;;;;18.01;42.60;101773.25;6284333;22;20003;-78
2021/03/21 10:58:46;;;;;;;0.50;0.50;;;;;;;18.08;42.47;101784.84;6275701;22;20025;-78
2021/03/21 11:01:22;;;;;;;2.55;0.80;;;;;;;18.04;41.71;101780.16;6300678;22;19999;-77
2021/03/21 11:03:57;;;;;;;0.82;0.80;;;;;;;17.86;41.76;101785.19;6270917;22;20092;-78
2021/03/21 11:06:34;;;;;;;2.17;0.82;;;;;;;17.82;42.27;101784.09;6308156;22;20018;-77
2021/03/21 11:09:24;;;;;;;;;;;;;;;;;;;;;
2021/03/21 11:12:01;;;;;;;0.93;0.70;;;;;;;18.34;41.92;101775.56;6304129;22;20086;-79
2021/03/21 11:14:58;;;;;;;0.40;0.40;;;;;;;18.51;41.08;101781.56;6281524;22;19999;-79
2021/03/21 11:17:29;;;;;;;1.13;0.77;;;;;;;18.35;40.69;101774.47;6315750;22;20497;-80
2021/03/21 11:20:03;;;;;;;1.77;0.70;;;;;;;18.31;40.91;101752.91;6281382;22;20003;-78
2021/03/21 11:22:43;;;;;;;0.43;0.40;;;;;;;18.63;41.03;101773.75;6283094;22;19999;-80
2021/03/21 11:25:50;;;;;;;1.50;0.60;;;;;;;19.01;41.02;101767.63;6308355;22;20015;-78
2021/03/21 11:28:46;;;;;;;;;;;;;;;;;;;;;
2021/03/21 11:34:59;;;;;;;1.60;0.60;;;;;;;20.17;38.79;101754.72;6292387;22;20004;-79
2021/03/21 11:37:35;;;;;;;0.82;0.22;;;;;;;21.04;39.43;101760.91;6284713;22;20078;-80
2021/03/21 11:40:27;;;;;;;0.75;0.50;;;;;;;21.83;37.99;101752.75;6278073;22;20052;-78
2021/03/21 11:43:44;;;;;;;;;;;;;;;;;;;;;
2021/03/21 11:52:33;;;;;;;0.93;0.43;;;;;;;25.59;32.89;101762.53;6307523;22;19999;-77
2021/03/21 11:55:19;;;;;;;1.00;0.60;;;;;;;26.57;33.13;101756.00;6280133;22;20060;-80
2021/03/21 11:58:33;;;;;;;;;;;;;;;;;;;;;
2021/03/21 12:01:25;;;;;;;0.50;0.30;;;;;;;30.50;31.41;101767.56;6300465;22;20379;-80
2021/03/21 12:10:37;;;;;;;0.45;0.35;;;;;;;35.03;25.26;101774.09;6183918;23;20001;-80
2021/03/21 12:13:34;;;;;;;0.60;0.40;;;;;;;34.21;21.82;101781.84;6283007;22;20087;-81
2021/03/21 12:16:57;;;;;;;0.38;0.35;;;;;;;33.29;22.05;101751.63;6315253;22;19999;-80
2021/03/21 12:19:30;;;;;;;0.70;0.40;;;;;;;32.81;23.39;101756.00;6282225;22;20061;-81
2021/03/21 12:29:32;;;;;;;1.13;0.45;;;;;;;34.95;18.84;101748.50;6206717;23;20644;-79
2021/03/21 12:32:38;;;;;;;0.52;0.50;;;;;;;33.96;17.92;101766.72;6098435;23;20021;-79
2021/03/21 12:35:29;;;;;;;2.42;0.32;;;;;;;32.75;20.39;101737.69;6114803;23;20420;-79
2021/03/21 12:38:03;;;;;;;3.70;0.60;;;;;;;33.75;21.61;101745.53;6285324;22;20003;-81
2021/03/21 12:51:01;;;;;;;3.03;0.70;;;;;;;30.08;20.26;101733.19;6229153;22;20027;-81
2021/03/21 12:53:33;;;;;;;0.30;0.30;;;;;;;31.07;22.11;101728.34;6277916;22;19999;-79
2021/03/21 12:56:33;;;;;;;;;;;;;;;;;;;;;
2021/03/21 12:58:51;;;;;;;1.42;0.43;;;;;;;34.87;20.45;101724.16;6293720;22;20073;-78
2021/03/21 13:01:16;;;;;;;0.52;0.50;;;;;;;36.23;18.63;101728.09;6302722;22;20425;-78
2021/03/21 13:03:44;;;;;;;0.40;0.40;;;;;;;35.57;16.96;101735.16;6252893;22;20027;-77